createdAt,value
2019-04-10T00:03:43.752Z,100224.15
2019-04-10T00:08:46.301Z,100219.63
2019-04-10T00:13:49.055Z,100222.95
2019-04-10T00:18:51.239Z,100222.49
2019-04-10T00:23:53.206Z,100229.36
2019-04-10T00:28:56.044Z,100222.03
2019-04-10T00:33:58.983Z,100236.26
2019-04-10T00:39:02.271Z,100237.55
2019-04-10T00:44:04.379Z,100234.34
2019-04-10T00:49:07.184Z,100227.24
2019-04-10T00:54:09.850Z,100227.47
2019-04-10T00:59:12.175Z,100231.13
2019-04-10T01:04:14.392Z,100233.25
2019-04-10T01:09:17.316Z,100233.95
2019-04-10T01:14:19.595Z,100228.39
2019-04-10T01:19:21.738Z,100228.83
2019-04-10T01:24:23.796Z,100232.76
2019-04-10T01:29:25.764Z,100227.80
2019-04-10T01:34:27.725Z,100223.85
2019-04-10T01:39:31.111Z,100227.52
2019-04-10T01:44:33.224Z,100230.49
2019-04-10T01:49:35.337Z,100232.12
2019-04-10T01:54:37.503Z,100231.97
2019-04-10T01:59:40.673Z,100226.02
2019-04-10T02:04:44.852Z,100226.48
2019-04-10T02:09:47.722Z,100235.22
2019-04-10T02:14:49.890Z,100223.84
2019-04-10T02:19:52.077Z,100228.75
2019-04-10T02:24:54.160Z,100226.11
2019-04-10T02:29:56.154Z,100219.34
2019-04-10T02:34:58.314Z,100220.52
2019-04-10T02:40:02.924Z,100215.31
2019-04-10T02:45:06.002Z,100212.45
2019-04-10T02:50:10.434Z,100210.70
2019-04-10T02:55:14.328Z,100208.52
2019-04-10T03:00:18.057Z,100212.28
2019-04-10T03:05:22.984Z,100211.11
2019-04-10T03:10:33.497Z,100214.74
2019-04-10T03:15:29.669Z,100216.66
2019-04-10T03:20:32.260Z,100220.52
2019-04-10T03:25:35.160Z,100221.09
2019-04-10T03:30:39.411Z,100226.03
2019-04-10T03:35:45.199Z,100229.20
2019-04-10T03:40:48.050Z,100241.84
2019-04-10T03:45:50.131Z,100236.06
2019-04-10T03:50:52.254Z,100235.03
2019-04-10T03:55:57.094Z,100233.13
2019-04-10T04:00:59.254Z,100233.01
2019-04-10T04:06:01.606Z,100232.02
2019-04-10T04:11:04.847Z,100241.59
2019-04-10T04:16:07.107Z,100248.70
2019-04-10T04:21:09.732Z,100237.86
2019-04-10T04:26:12.689Z,100243.30
2019-04-10T04:31:15.965Z,100246.99
2019-04-10T04:36:18.321Z,100242.23
2019-04-10T04:41:20.396Z,100240.95
2019-04-10T04:46:22.449Z,100249.14
2019-04-10T04:51:25.832Z,100258.89
2019-04-10T04:56:28.327Z,100264.02
2019-04-10T05:01:30.410Z,100264.08
2019-04-10T05:06:32.961Z,100267.55
2019-04-10T05:11:36.375Z,100269.22
2019-04-10T05:16:39.525Z,100279.23
2019-04-10T05:21:41.709Z,100284.56
2019-04-10T05:26:44.807Z,100280.30
2019-04-10T05:31:47.163Z,100285.70
2019-04-10T05:36:49.261Z,100286.75
2019-04-10T05:41:51.299Z,100294.21
2019-04-10T05:46:53.454Z,100295.47
2019-04-10T05:51:55.659Z,100295.91
2019-04-10T05:56:58.980Z,100293.09
2019-04-10T06:02:01.184Z,100300.36
2019-04-10T06:07:03.235Z,100303.92
2019-04-10T06:12:05.862Z,100300.31
2019-04-10T06:17:10.073Z,100294.74
2019-04-10T06:22:12.773Z,100301.03
2019-04-10T06:27:15.056Z,100309.41
2019-04-10T06:32:17.119Z,100304.66
2019-04-10T06:37:19.203Z,100304.03
2019-04-10T06:42:22.475Z,100306.56
2019-04-10T06:47:24.924Z,100315.64
2019-04-10T06:52:27.079Z,100307.61
2019-04-10T06:57:30.286Z,100311.91
2019-04-10T07:02:34.597Z,100298.75
2019-04-10T07:07:49.878Z,100301.87
2019-04-10T07:12:41.628Z,100316.88
2019-04-10T07:17:44.763Z,100315.02
2019-04-10T07:22:49.352Z,100317.30
2019-04-10T07:27:52.357Z,100311.03
2019-04-10T07:32:55.135Z,100308.48
2019-04-10T07:37:58.462Z,100310.55
2019-04-10T07:43:02.137Z,100309.83
2019-04-10T07:48:04.519Z,100310.30
2019-04-10T07:53:06.957Z,100325.10
2019-04-10T07:58:09.031Z,100320.52
2019-04-10T08:03:11.103Z,100326.36
2019-04-10T08:08:13.223Z,100324.38
2019-04-10T08:13:16.145Z,100328.20
2019-04-10T08:18:18.969Z,100329.00
2019-04-10T08:23:21.811Z,100343.07
2019-04-10T08:28:24.211Z,100350.19
2019-04-10T08:33:26.114Z,100339.30
2019-04-10T08:38:28.284Z,100348.17
2019-04-10T08:43:31.266Z,100338.95
2019-04-10T08:48:34.666Z,100348.06
2019-04-10T08:53:36.865Z,100340.66
2019-04-10T08:58:39.157Z,100356.29
2019-04-10T09:03:41.352Z,100349.48
2019-04-10T09:08:43.686Z,100354.78
2019-04-10T09:13:46.447Z,100342.33
2019-04-10T09:18:49.496Z,100339.94
2019-04-10T09:23:54.402Z,100343.88
2019-04-10T09:28:56.983Z,100339.59
2019-04-10T09:33:59.267Z,100336.08
2019-04-10T09:39:01.328Z,100342.44
2019-04-10T09:44:04.531Z,100325.92
2019-04-10T09:49:06.983Z,100350.64
2019-04-10T09:54:09.890Z,100341.44
2019-04-10T09:59:12.117Z,100337.33
2019-04-10T10:04:15.353Z,100320.16
2019-04-10T10:09:17.697Z,100331.28
2019-04-10T10:14:20.887Z,100315.45
2019-04-10T10:19:23.743Z,100322.70
2019-04-10T10:24:28.781Z,100326.52
2019-04-10T10:29:30.983Z,100307.33
2019-04-10T10:34:33.034Z,100308.64
2019-04-10T10:39:35.081Z,100310.61
2019-04-10T10:44:38.346Z,100305.48
2019-04-10T10:49:40.502Z,100315.19
2019-04-10T10:54:43.246Z,100313.41
2019-04-10T10:59:46.055Z,100316.67
2019-04-10T11:04:48.498Z,100313.58
2019-04-10T11:09:53.134Z,100302.95
2019-04-10T11:14:56.258Z,100308.84
2019-04-10T11:19:59.496Z,100309.29
2019-04-10T11:25:01.762Z,100302.86
2019-04-10T11:30:05.441Z,100307.30
2019-04-10T11:35:08.038Z,100301.62
2019-04-10T11:40:12.203Z,100307.07
2019-04-10T11:45:17.091Z,100302.63
2019-04-10T11:50:19.472Z,100305.37
2019-04-10T11:55:25.796Z,100310.33
2019-04-10T12:00:45.361Z,100301.87
2019-04-10T12:05:42.099Z,100311.76
2019-04-10T12:15:48.505Z,100294.56
2019-04-10T12:20:51.531Z,100300.23
2019-04-10T12:25:53.790Z,100307.41
2019-04-10T12:30:55.872Z,100305.45
2019-04-10T12:35:58.248Z,100290.16
2019-04-10T12:41:01.349Z,100298.09
2019-04-10T12:46:04.562Z,100292.87
2019-04-10T12:51:07.700Z,100305.33
2019-04-10T12:56:10.250Z,100316.48
2019-04-10T13:01:14.251Z,100308.33
2019-04-10T13:06:17.867Z,100305.55
2019-04-10T13:11:20.495Z,100297.23
2019-04-10T13:16:23.842Z,100299.70
2019-04-10T13:21:26.398Z,100297.54
2019-04-10T13:26:28.758Z,100288.61
2019-04-10T13:31:30.793Z,100291.23
2019-04-10T13:36:33.002Z,100292.31
2019-04-10T13:41:35.079Z,100303.20
2019-04-10T13:46:37.288Z,100289.91
2019-04-10T13:51:39.378Z,100297.36
2019-04-10T13:56:41.467Z,100306.53
2019-04-10T14:01:43.947Z,100298.52
2019-04-10T14:06:48.813Z,100294.06
2019-04-10T14:11:51.260Z,100293.80
2019-04-10T14:16:53.613Z,100292.48
2019-04-10T14:21:55.734Z,100302.97
2019-04-10T14:27:21.436Z,100293.29
2019-04-10T14:32:35.965Z,100292.41
2019-04-10T14:37:38.128Z,100293.86
2019-04-10T14:42:40.349Z,100297.61
2019-04-10T14:47:43.443Z,100299.93
2019-04-10T14:52:45.741Z,100301.05
2019-04-10T14:57:47.801Z,100297.03
2019-04-10T15:02:50.713Z,100295.55
2019-04-10T15:07:53.280Z,100303.08
2019-04-10T15:13:06.747Z,100312.61
2019-04-10T15:17:59.498Z,100310.66
2019-04-10T15:23:01.558Z,100319.86
2019-04-10T15:28:04.346Z,100323.59
2019-04-10T15:33:06.766Z,100318.55
2019-04-10T15:38:09.460Z,100322.33
2019-04-10T15:43:12.608Z,100321.66
2019-04-10T15:48:14.899Z,100332.70
2019-04-10T15:53:18.026Z,100320.30
2019-04-10T15:58:21.416Z,100325.39
2019-04-10T16:03:23.978Z,100332.20
2019-04-10T16:08:28.155Z,100332.77
2019-04-10T16:13:38.840Z,100326.20
2019-04-10T16:18:41.717Z,100332.67
2019-04-10T16:23:48.194Z,100335.20
2019-04-10T16:28:51.371Z,100337.56
2019-04-10T16:33:54.613Z,100338.80
2019-04-10T16:38:57.441Z,100338.91
2019-04-10T16:44:00.534Z,100339.67
2019-04-10T16:49:02.752Z,100343.39
2019-04-10T16:54:04.841Z,100342.50
2019-04-10T16:59:06.876Z,100343.28
2019-04-10T17:04:09.124Z,100350.73
2019-04-10T17:09:15.221Z,100355.55
2019-04-10T17:14:17.524Z,100357.08
2019-04-10T17:19:19.888Z,100365.36
2019-04-10T17:24:22.954Z,100369.52
2019-04-10T17:29:25.299Z,100375.17
2019-04-10T17:34:27.479Z,100379.05
2019-04-10T17:39:29.552Z,100394.45
2019-04-10T17:44:31.861Z,100398.29
2019-04-10T17:49:34.041Z,100400.77
2019-04-10T17:54:36.681Z,100414.28
2019-04-10T17:59:38.958Z,100410.11
2019-04-10T18:04:42.151Z,100416.17
2019-04-10T18:09:44.430Z,100420.77
2019-04-10T18:14:47.168Z,100433.22
2019-04-10T18:19:50.252Z,100438.55
2019-04-10T18:24:53.672Z,100454.72
2019-04-10T18:29:55.937Z,100457.53
2019-04-10T18:34:58.292Z,100468.80
2019-04-10T18:40:01.709Z,100474.91
2019-04-10T18:45:05.693Z,100479.03
2019-04-10T18:50:08.102Z,100486.20
2019-04-10T18:55:10.197Z,100500.27
2019-04-10T19:00:34.477Z,100506.84
2019-04-10T19:05:40.265Z,100514.38
2019-04-10T19:10:43.254Z,100525.09
2019-04-10T19:15:46.887Z,100525.25
2019-04-10T19:21:08.617Z,100534.66
2019-04-10T19:26:13.858Z,100546.58
2019-04-10T19:31:20.059Z,100555.37
2019-04-10T19:36:23.761Z,100551.09
2019-04-10T19:41:32.814Z,100555.61
2019-04-10T19:46:31.358Z,100565.95
2019-04-10T19:51:34.382Z,100564.88
2019-04-10T19:56:36.978Z,100565.11
2019-04-10T20:01:39.579Z,100561.98
2019-04-10T20:06:42.700Z,100569.70
2019-04-10T20:11:52.070Z,100571.56
2019-04-10T20:16:49.462Z,100569.07
2019-04-10T20:21:52.412Z,100574.38
2019-04-10T20:26:55.838Z,100583.27
2019-04-10T20:31:58.586Z,100578.52
2019-04-10T20:37:05.956Z,100582.19
2019-04-10T20:42:05.827Z,100596.16
2019-04-10T20:47:08.803Z,100596.39
2019-04-10T20:52:11.965Z,100601.30
2019-04-10T20:57:15.148Z,100606.73
2019-04-10T21:02:18.080Z,100617.41
2019-04-10T21:07:21.338Z,100623.08
2019-04-10T21:12:23.829Z,100614.76
2019-04-10T21:17:26.073Z,100621.96
2019-04-10T21:22:28.674Z,100631.86
2019-04-10T21:27:33.542Z,100639.05
2019-04-10T21:32:56.737Z,100640.81
2019-04-10T21:37:59.209Z,100648.94
2019-04-10T21:43:01.614Z,100649.47
2019-04-10T21:48:04.192Z,100660.36
2019-04-10T21:53:06.353Z,100665.38
2019-04-10T21:58:08.429Z,100667.98
2019-04-10T22:03:11.235Z,100668.29
2019-04-10T22:08:29.518Z,100673.48
2019-04-10T22:13:32.286Z,100668.45
2019-04-10T22:18:34.472Z,100677.64
2019-04-10T22:23:36.563Z,100677.50
2019-04-10T22:28:39.377Z,100678.11
2019-04-10T22:33:42.569Z,100680.47
2019-04-10T22:38:44.795Z,100679.86
2019-04-10T22:43:47.050Z,100680.77
2019-04-10T22:48:50.055Z,100685.03
2019-04-10T22:53:53.424Z,100696.31
2019-04-10T22:58:55.687Z,100700.00
2019-04-10T23:03:57.746Z,100704.88
2019-04-10T23:09:00.105Z,100697.72
2019-04-10T23:14:02.655Z,100706.38
2019-04-10T23:19:05.719Z,100710.80
2019-04-10T23:24:07.826Z,100718.77
2019-04-10T23:29:09.939Z,100721.13
2019-04-10T23:34:12.545Z,100729.17
2019-04-10T23:39:14.739Z,100731.98
2019-04-10T23:44:16.813Z,100733.03
2019-04-10T23:49:19.522Z,100735.07
2019-04-10T23:54:21.900Z,100736.20
2019-04-10T23:59:23.962Z,100751.73
